Time;durP1;ratioP1;P1;durP2;ratioP2;P2;SDS_P1;SDS_P2;PMS_P1;PMS_P2;Temp;Humidity;BMP_temperature;BMP_pressure;BME280_temperature;BME280_humidity;BME280_pressure;Samples;Min_cycle;Max_cycle;Signal;HPM_P1;HPM_P2
2024/01/10 00:00:55;;;;;;;;;;;-2.60;99.90;;;;;;8425490;28;20333;-76
2024/01/10 00:04:56;;;;;;;;;;;-2.60;99.90;;;;;;8414459;28;20314;-75
2024/01/10 00:08:58;;;;;;;;;;;-2.60;99.90;;;;;;8433126;28;20019;-74
2024/01/10 00:13:00;;;;;;;;;;;-2.60;99.90;;;;;;8413922;28;20363;-75
2024/01/10 00:17:02;;;;;;;;;;;-2.70;99.90;;;;;;8420317;28;19970;-74
2024/01/10 00:21:03;;;;;;;;;;;-2.70;99.90;;;;;;8441138;28;19990;-75
2024/01/10 00:25:05;;;;;;;;;;;-2.60;99.90;;;;;;8440608;28;19936;-74
2024/01/10 00:29:07;;;;;;;;;;;-2.60;99.90;;;;;;8422427;28;19953;-74
2024/01/10 00:33:09;;;;;;;;;;;-2.60;99.90;;;;;;8441688;28;19928;-74
2024/01/10 00:37:10;;;;;;;;;;;-2.60;99.90;;;;;;8412892;28;20030;-75
2024/01/10 00:41:12;;;;;;;;;;;-2.60;99.90;;;;;;8416102;28;20372;-75
2024/01/10 00:45:14;;;;;;;;;;;-2.70;99.90;;;;;;8435118;28;20287;-74
2024/01/10 00:49:16;;;;;;;;;;;-2.70;99.90;;;;;;8434999;28;19931;-75
2024/01/10 00:53:17;;;;;;;;;;;-2.70;99.90;;;;;;8420532;28;19924;-75
2024/01/10 00:57:19;;;;;;;;;;;-2.70;99.90;;;;;;8421270;28;19938;-75
2024/01/10 01:01:21;;;;;;;;;;;-2.70;99.90;;;;;;8425308;28;19924;-75
2024/01/10 01:05:22;;;;;;;;;;;-2.70;99.90;;;;;;8433106;28;20318;-74
2024/01/10 01:09:25;;;;;;;;;;;-2.70;99.90;;;;;;8441829;28;20337;-75
2024/01/10 01:13:26;;;;;;;;;;;-2.70;99.90;;;;;;8443045;28;19924;-75
2024/01/10 01:17:28;;;;;;;;;;;-2.80;99.90;;;;;;8422411;28;20338;-75
2024/01/10 01:21:30;;;;;;;;;;;-2.80;99.90;;;;;;8434314;28;19973;-75
2024/01/10 01:25:31;;;;;;;;;;;-2.80;99.90;;;;;;8417052;28;19928;-74
2024/01/10 01:29:33;;;;;;;;;;;-2.80;99.90;;;;;;8426268;28;19924;-74
2024/01/10 01:33:35;;;;;;;;;;;-2.80;99.90;;;;;;8432928;28;19931;-75
2024/01/10 01:37:36;;;;;;;;;;;-2.80;99.90;;;;;;8438341;28;20379;-74
2024/01/10 01:41:38;;;;;;;;;;;-2.80;99.90;;;;;;8438593;28;20002;-74
2024/01/10 01:45:40;;;;;;;;;;;-2.80;99.90;;;;;;8429642;28;20460;-74
2024/01/10 01:49:42;;;;;;;;;;;-2.80;99.90;;;;;;8433193;28;20436;-74
2024/01/10 01:53:44;;;;;;;;;;;-2.90;99.90;;;;;;8430526;28;19924;-75
2024/01/10 01:57:46;;;;;;;;;;;-2.90;99.90;;;;;;8425905;28;19931;-74
2024/01/10 02:01:48;;;;;;;;;;;-2.90;99.90;;;;;;8447076;28;19981;-74
2024/01/10 02:05:50;;;;;;;;;;;-2.90;99.90;;;;;;8418401;28;19932;-74
2024/01/10 02:09:51;;;;;;;;;;;-2.90;99.90;;;;;;8441420;28;19971;-75
2024/01/10 02:13:56;;;;;;;;;;;-2.90;99.90;;;;;;8448795;28;19934;-74
2024/01/10 02:17:58;;;;;;;;;;;-2.90;99.90;;;;;;8444161;28;19928;-74
2024/01/10 02:21:59;;;;;;;;;;;-2.90;99.90;;;;;;8443867;28;20371;-74
2024/01/10 02:26:02;;;;;;;;;;;-2.90;99.90;;;;;;8447506;28;20287;-75
2024/01/10 02:30:04;;;;;;;;;;;-2.90;99.90;;;;;;8442063;28;19931;-74
2024/01/10 02:34:06;;;;;;;;;;;-2.90;99.90;;;;;;8440736;28;19976;-74
2024/01/10 02:38:07;;;;;;;;;;;-2.90;99.90;;;;;;8427932;28;19974;-74
2024/01/10 02:42:09;;;;;;;;;;;-3.00;99.90;;;;;;8422005;28;19931;-75
2024/01/10 02:46:11;;;;;;;;;;;-3.00;99.90;;;;;;8419992;28;19928;-74
2024/01/10 02:50:12;;;;;;;;;;;-3.00;99.90;;;;;;8443906;28;19939;-75
2024/01/10 02:54:14;;;;;;;;;;;-3.00;99.90;;;;;;8423677;28;20010;-75
2024/01/10 02:58:16;;;;;;;;;;;-3.00;99.90;;;;;;8437538;28;19939;-75
2024/01/10 03:02:17;;;;;;;;;;;-3.10;99.90;;;;;;8434001;28;19932;-75
2024/01/10 03:06:19;;;;;;;;;;;-3.10;99.90;;;;;;8446592;28;20309;-75
2024/01/10 03:10:21;;;;;;;;;;;-3.10;99.90;;;;;;8426535;28;20382;-75
2024/01/10 03:14:23;;;;;;;;;;;-3.10;99.90;;;;;;8416984;28;19931;-75
2024/01/10 03:18:24;;;;;;;;;;;-3.10;99.90;;;;;;8438581;28;19938;-75
2024/01/10 03:32:33;;;;;;;;;;;-3.10;99.90;;;;;;8433142;28;19931;-75
2024/01/10 03:36:34;;;;;;;;;;;-3.10;99.90;;;;;;8436997;28;19924;-75
2024/01/10 03:55:46;;;;;;;;;;;-3.20;99.90;;;;;;8436757;28;19961;-75
2024/01/10 03:59:47;;;;;;;;;;;-3.20;99.90;;;;;;8420358;28;19924;-75
2024/01/10 04:03:49;;;;;;;;;;;-3.20;99.90;;;;;;8420814;28;20272;-75
2024/01/10 04:07:51;;;;;;;;;;;-3.20;99.90;;;;;;8441651;28;19928;-75
2024/01/10 04:11:53;;;;;;;;;;;-3.20;99.90;;;;;;8430034;28;19931;-75
2024/01/10 04:15:55;;;;;;;;;;;-3.30;99.90;;;;;;8439913;28;19924;-76
2024/01/10 04:19:57;;;;;;;;;;;-3.30;99.90;;;;;;8441298;28;19924;-75
2024/01/10 04:23:59;;;;;;;;;;;-3.30;99.90;;;;;;8438519;28;19924;-75
2024/01/10 04:28:01;;;;;;;;;;;-3.30;99.90;;;;;;8416035;28;20012;-75
2024/01/10 04:32:03;;;;;;;;;;;-3.30;99.90;;;;;;8442144;28;19924;-75
2024/01/10 04:36:06;;;;;;;;;;;-3.30;99.90;;;;;;8424856;28;19924;-75
2024/01/10 04:40:08;;;;;;;;;;;-3.30;99.90;;;;;;8422833;28;20299;-75
2024/01/10 04:44:11;;;;;;;;;;;-3.40;99.90;;;;;;8416433;28;19924;-75
2024/01/10 04:48:13;;;;;;;;;;;-3.40;99.90;;;;;;8442958;28;19976;-75
2024/01/10 04:52:14;;;;;;;;;;;-3.40;99.90;;;;;;8435558;28;20402;-74
2024/01/10 04:56:17;;;;;;;;;;;-3.40;99.90;;;;;;8429396;28;19924;-75
2024/01/10 05:00:19;;;;;;;;;;;-3.40;99.90;;;;;;8434645;28;20025;-75
2024/01/10 05:04:20;;;;;;;;;;;-3.40;99.90;;;;;;8419757;28;19928;-75
2024/01/10 05:08:22;;;;;;;;;;;-3.40;99.90;;;;;;8440334;28;19924;-74
2024/01/10 05:12:24;;;;;;;;;;;-3.40;99.90;;;;;;8436968;28;19924;-75
2024/01/10 05:16:25;;;;;;;;;;;-3.40;99.90;;;;;;8425558;28;19953;-75
2024/01/10 05:20:27;;;;;;;;;;;-3.40;99.90;;;;;;8436820;28;19931;-74
2024/01/10 05:24:29;;;;;;;;;;;-3.40;99.90;;;;;;8435903;28;19932;-75
2024/01/10 05:28:31;;;;;;;;;;;-3.50;99.90;;;;;;8428254;28;19928;-75
2024/01/10 05:32:33;;;;;;;;;;;-3.50;99.90;;;;;;8427360;28;20264;-75
2024/01/10 05:36:34;;;;;;;;;;;-3.40;99.90;;;;;;8438908;28;19978;-74
2024/01/10 05:40:36;;;;;;;;;;;-3.40;99.90;;;;;;8434442;28;20325;-74
2024/01/10 05:44:40;;;;;;;;;;;-3.40;99.90;;;;;;8449537;28;19924;-75
2024/01/10 05:48:41;;;;;;;;;;;-3.40;99.90;;;;;;8449908;28;20325;-75
2024/01/10 05:52:43;;;;;;;;;;;-3.40;99.90;;;;;;8442908;28;19924;-74
2024/01/10 05:56:48;;;;;;;;;;;-3.50;99.90;;;;;;8445319;28;20078;-75
2024/01/10 06:00:50;;;;;;;;;;;-3.50;99.90;;;;;;8440266;28;20756;-75
2024/01/10 06:04:51;;;;;;;;;;;-3.50;99.90;;;;;;8423828;28;19928;-75
2024/01/10 06:08:53;;;;;;;;;;;-3.50;99.90;;;;;;8426143;28;19928;-75
2024/01/10 06:12:55;;;;;;;;;;;-3.50;99.90;;;;;;8427875;28;19924;-75
2024/01/10 06:16:59;;;;;;;;;;;-3.50;99.90;;;;;;8446309;28;19969;-74
2024/01/10 06:21:01;;;;;;;;;;;-3.50;99.90;;;;;;8433226;28;20050;-75
2024/01/10 06:25:04;;;;;;;;;;;-3.50;99.90;;;;;;8431367;28;20406;-74
2024/01/10 06:29:06;;;;;;;;;;;-3.50;99.90;;;;;;8446728;28;20025;-75
2024/01/10 06:33:07;;;;;;;;;;;-3.50;99.90;;;;;;8426988;28;19928;-75
2024/01/10 06:37:10;;;;;;;;;;;-3.60;99.90;;;;;;8449765;28;19979;-75
2024/01/10 06:41:14;;;;;;;;;;;-3.60;99.90;;;;;;8436546;28;19935;-75
2024/01/10 06:45:16;;;;;;;;;;;-3.60;99.90;;;;;;8429310;28;19977;-75
2024/01/10 06:49:18;;;;;;;;;;;-3.60;99.90;;;;;;8448610;28;19924;-75
2024/01/10 06:53:19;;;;;;;;;;;-3.60;99.90;;;;;;8438759;28;19924;-75
2024/01/10 06:57:21;;;;;;;;;;;-3.60;99.90;;;;;;8439807;28;20569;-75
2024/01/10 07:01:23;;;;;;;;;;;-3.60;99.90;;;;;;8446724;28;19927;-75
2024/01/10 07:05:25;;;;;;;;;;;-3.60;99.90;;;;;;8440074;28;19940;-75
2024/01/10 07:09:27;;;;;;;;;;;-3.60;99.90;;;;;;8455701;28;19975;-75
2024/01/10 07:13:29;;;;;;;;;;;-3.60;99.90;;;;;;8441017;28;19928;-74
2024/01/10 07:17:30;;;;;;;;;;;-3.60;99.90;;;;;;8438312;28;20141;-75
2024/01/10 07:21:47;;;;;;;;;;;-3.60;99.90;;;;;;8456559;27;19916;-75
2024/01/10 07:25:49;;;;;;;;;;;-3.60;99.90;;;;;;8455581;28;19932;-75
2024/01/10 07:29:52;;;;;;;;;;;-3.60;99.90;;;;;;8461236;28;20343;-75
2024/01/10 07:33:54;;;;;;;;;;;-3.60;99.90;;;;;;8449085;28;19940;-75
2024/01/10 07:37:56;;;;;;;;;;;-3.60;99.90;;;;;;8454443;28;19931;-75
2024/01/10 07:41:58;;;;;;;;;;;-3.60;99.90;;;;;;8457559;28;19924;-75
2024/01/10 07:46:01;;;;;;;;;;;-3.60;99.90;;;;;;8451920;28;19972;-75
2024/01/10 07:50:04;;;;;;;;;;;-3.60;99.90;;;;;;8470726;28;19924;-75
2024/01/10 07:54:06;;;;;;;;;;;-3.50;99.90;;;;;;8450650;28;19925;-75
2024/01/10 07:58:07;;;;;;;;;;;-3.50;99.90;;;;;;8441448;28;19928;-75
2024/01/10 08:02:10;;;;;;;;;;;-3.50;99.90;;;;;;8452896;28;19924;-75
2024/01/10 08:21:22;;;;;;;;;;;-3.40;99.90;;;;;;8425196;28;19978;-75
2024/01/10 08:25:23;;;;;;;;;;;-3.40;99.90;;;;;;8463374;28;19939;-74
2024/01/10 08:29:31;;;;;;;;;;;-3.40;99.90;;;;;;8458114;28;19969;-74
2024/01/10 08:33:33;;;;;;;;;;;-3.30;99.90;;;;;;8421507;28;19931;-75
2024/01/10 08:37:35;;;;;;;;;;;-3.30;99.90;;;;;;8422282;28;19925;-74
2024/01/10 08:41:42;;;;;;;;;;;-3.20;99.90;;;;;;8449877;27;20379;-74
2024/01/10 08:45:44;;;;;;;;;;;-3.20;99.90;;;;;;8440004;28;19928;-74
2024/01/10 08:49:46;;;;;;;;;;;-3.10;99.90;;;;;;8429888;28;19924;-74
2024/01/10 08:53:48;;;;;;;;;;;-3.00;99.90;;;;;;8424108;28;19999;-74
2024/01/10 08:57:49;;;;;;;;;;;-3.00;99.90;;;;;;8418459;28;19929;-74
2024/01/10 09:01:52;;;;;;;;;;;-2.90;99.90;;;;;;8413150;28;19928;-74
2024/01/10 09:05:53;;;;;;;;;;;-2.80;99.90;;;;;;8424755;28;20209;-74
2024/01/10 09:10:05;;;;;;;;;;;-2.60;99.90;;;;;;8430258;28;20287;-74
2024/01/10 09:14:08;;;;;;;;;;;-2.20;99.90;;;;;;8423305;28;19924;-74
2024/01/10 09:18:11;;;;;;;;;;;-1.90;99.90;;;;;;8438657;28;19927;-74
2024/01/10 09:22:13;;;;;;;;;;;-1.40;99.90;;;;;;8430657;28;19924;-75
2024/01/10 09:26:15;;;;;;;;;;;-1.00;99.90;;;;;;8423186;28;19924;-74
2024/01/10 09:30:18;;;;;;;;;;;-0.70;99.90;;;;;;8420723;28;19924;-75
2024/01/10 09:34:20;;;;;;;;;;;-0.40;99.90;;;;;;8426914;28;19934;-75
2024/01/10 09:38:22;;;;;;;;;;;-0.10;99.90;;;;;;8420115;28;19971;-75
2024/01/10 09:42:25;;;;;;;;;;;0.00;99.90;;;;;;8461637;27;19931;-75
2024/01/10 09:46:29;;;;;;;;;;;0.20;99.90;;;;;;8437094;28;19924;-75
2024/01/10 09:50:31;;;;;;;;;;;0.20;99.90;;;;;;8470352;27;19977;-75
2024/01/10 09:54:34;;;;;;;;;;;0.20;99.90;;;;;;8423554;28;19928;-75
2024/01/10 09:58:39;;;;;;;;;;;0.10;99.90;;;;;;8426221;28;19928;-74
2024/01/10 10:02:42;;;;;;;;;;;0.10;99.90;;;;;;8428171;27;19947;-75
2024/01/10 10:06:44;;;;;;;;;;;0.20;99.90;;;;;;8426248;28;19924;-75
2024/01/10 10:10:48;;;;;;;;;;;0.40;99.90;;;;;;8420502;28;19970;-75
2024/01/10 10:14:50;;;;;;;;;;;0.60;99.90;;;;;;8419718;28;19940;-74
2024/01/10 10:18:57;;;;;;;;;;;0.90;99.90;;;;;;8431319;28;20341;-75
2024/01/10 10:23:06;;;;;;;;;;;1.10;99.90;;;;;;8415205;28;19974;-75
2024/01/10 10:27:09;;;;;;;;;;;1.10;99.90;;;;;;8418798;28;19934;-75
2024/01/10 10:31:11;;;;;;;;;;;1.20;99.90;;;;;;8419811;28;19931;-75
2024/01/10 10:35:13;;;;;;;;;;;1.50;99.90;;;;;;8420469;28;19967;-75
2024/01/10 10:39:25;;;;;;;;;;;1.70;99.90;;;;;;8431009;28;19969;-74
2024/01/10 10:43:29;;;;;;;;;;;1.80;99.90;;;;;;8418267;28;19928;-74
2024/01/10 10:47:35;;;;;;;;;;;1.80;99.90;;;;;;8421456;28;19946;-75
2024/01/10 10:51:38;;;;;;;;;;;1.90;99.90;;;;;;8412980;28;19927;-75
2024/01/10 10:55:40;;;;;;;;;;;2.10;99.90;;;;;;8417815;28;20880;-75
2024/01/10 10:59:42;;;;;;;;;;;2.40;99.90;;;;;;8415920;28;20402;-74
2024/01/10 11:03:47;;;;;;;;;;;2.90;99.90;;;;;;8417037;28;19978;-74
2024/01/10 11:07:49;;;;;;;;;;;3.60;99.90;;;;;;8427469;28;19947;-74
2024/01/10 11:12:00;;;;;;;;;;;4.20;99.90;;;;;;8443537;28;19931;-74
2024/01/10 11:16:03;;;;;;;;;;;4.70;99.90;;;;;;8406103;28;19932;-74
2024/01/10 11:20:18;;;;;;;;;;;5.20;99.90;;;;;;8418243;28;20452;-74
2024/01/10 11:24:20;;;;;;;;;;;5.70;99.90;;;;;;8417755;28;19935;-74
2024/01/10 11:28:24;;;;;;;;;;;6.10;99.90;;;;;;8419547;28;19936;-74
2024/01/10 11:32:26;;;;;;;;;;;6.50;99.90;;;;;;8416472;28;19924;-72
2024/01/10 11:36:29;;;;;;;;;;;6.90;99.90;;;;;;8446280;27;19943;-72
2024/01/10 11:40:46;;;;;;;;;;;7.20;99.90;;;;;;8413401;28;19935;-71
2024/01/10 11:44:51;;;;;;;;;;;7.50;99.90;;;;;;8418371;28;19931;-71
2024/01/10 11:48:54;;;;;;;;;;;7.80;99.90;;;;;;8415162;28;19924;-71
2024/01/10 11:52:56;;;;;;;;;;;8.10;99.90;;;;;;8400473;28;20659;-71
2024/01/10 11:56:58;;;;;;;;;;;8.30;99.90;;;;;;8398065;28;20453;-71
2024/01/10 12:00:59;;;;;;;;;;;8.50;99.90;;;;;;8398898;28;19924;-71
2024/01/10 12:05:01;;;;;;;;;;;8.70;99.90;;;;;;8409139;28;20312;-70
2024/01/10 12:09:08;;;;;;;;;;;8.70;99.90;;;;;;8420787;28;20437;-71
2024/01/10 12:13:10;;;;;;;;;;;8.40;99.90;;;;;;8424788;28;19930;-71
2024/01/10 12:17:12;;;;;;;;;;;8.10;99.90;;;;;;8426247;28;19996;-71
2024/01/10 12:21:14;;;;;;;;;;;7.90;99.90;;;;;;8421960;28;19931;-71
2024/01/10 12:25:16;;;;;;;;;;;8.00;99.90;;;;;;8423535;28;19924;-71
2024/01/10 12:29:20;;;;;;;;;;;8.20;99.90;;;;;;8422248;28;19951;-70
2024/01/10 12:33:22;;;;;;;;;;;8.50;99.90;;;;;;8429053;28;19924;-71
2024/01/10 12:37:24;;;;;;;;;;;8.70;99.90;;;;;;8432321;28;19930;-71
2024/01/10 12:41:26;;;;;;;;;;;8.60;99.90;;;;;;8418428;28;19951;-70
2024/01/10 12:45:28;;;;;;;;;;;8.50;99.90;;;;;;8423830;28;19924;-70
2024/01/10 12:49:30;;;;;;;;;;;8.40;99.90;;;;;;8423916;28;19978;-71
2024/01/10 12:53:34;;;;;;;;;;;8.10;99.90;;;;;;8435653;28;19932;-71
2024/01/10 12:57:36;;;;;;;;;;;7.80;99.90;;;;;;8418359;28;20045;-70
2024/01/10 13:01:37;;;;;;;;;;;7.70;99.90;;;;;;8420184;28;19931;-71
2024/01/10 13:26:01;;;;;;;;;;;7.40;99.90;;;;;;8401814;28;20383;-71
2024/01/10 13:30:04;;;;;;;;;;;7.60;99.90;;;;;;8418927;28;20370;-71
2024/01/10 13:34:07;;;;;;;;;;;7.20;99.90;;;;;;8435967;28;19923;-71
2024/01/10 13:38:10;;;;;;;;;;;6.50;99.90;;;;;;8431743;28;19927;-72
2024/01/10 13:42:11;;;;;;;;;;;5.80;99.90;;;;;;8435575;28;20125;-72
2024/01/10 13:46:13;;;;;;;;;;;5.10;99.90;;;;;;8439208;28;19934;-72
2024/01/10 13:50:15;;;;;;;;;;;4.50;99.90;;;;;;8433508;28;19947;-73
2024/01/10 13:54:17;;;;;;;;;;;4.10;99.90;;;;;;8427333;28;19984;-73
2024/01/10 13:58:19;;;;;;;;;;;3.90;99.90;;;;;;8429826;28;20333;-73
2024/01/10 14:02:23;;;;;;;;;;;3.80;99.90;;;;;;8438751;28;19932;-73
2024/01/10 14:06:25;;;;;;;;;;;3.60;99.90;;;;;;8430501;28;19924;-73
2024/01/10 14:10:27;;;;;;;;;;;3.50;99.90;;;;;;8430511;28;20297;-73
2024/01/10 14:14:29;;;;;;;;;;;3.40;99.90;;;;;;8427801;28;19997;-73
2024/01/10 14:18:30;;;;;;;;;;;3.30;99.90;;;;;;8439207;28;20271;-73
2024/01/10 14:22:32;;;;;;;;;;;3.20;99.90;;;;;;8429084;28;19924;-74
2024/01/10 14:26:35;;;;;;;;;;;3.00;99.90;;;;;;8430382;28;19924;-74
2024/01/10 14:30:36;;;;;;;;;;;3.00;99.90;;;;;;8428575;28;20371;-74
2024/01/10 14:34:39;;;;;;;;;;;2.90;99.90;;;;;;8419169;28;19945;-74
2024/01/10 14:38:41;;;;;;;;;;;2.80;99.90;;;;;;8423861;28;19924;-74
2024/01/10 14:42:43;;;;;;;;;;;2.80;99.90;;;;;;8429672;28;19925;-74
2024/01/10 14:46:45;;;;;;;;;;;2.80;99.90;;;;;;8428026;28;19924;-74
2024/01/10 14:50:53;;;;;;;;;;;2.80;99.90;;;;;;8428005;28;19927;-74
2024/01/10 14:54:56;;;;;;;;;;;2.70;99.90;;;;;;8432734;28;20390;-73
2024/01/10 14:58:57;;;;;;;;;;;2.90;99.90;;;;;;8422806;28;20295;-74
2024/01/10 15:18:09;;;;;;;;;;;5.20;99.90;;;;;;8422334;28;19981;-74
2024/01/10 15:22:11;;;;;;;;;;;5.30;99.90;;;;;;8429022;28;19928;-73
2024/01/10 15:26:17;;;;;;;;;;;5.00;99.90;;;;;;8438821;28;19931;-74
2024/01/10 15:30:19;;;;;;;;;;;4.50;99.90;;;;;;8412162;28;19932;-73
2024/01/10 15:34:24;;;;;;;;;;;4.10;99.90;;;;;;8423881;28;19928;-73
2024/01/10 15:38:26;;;;;;;;;;;3.80;99.90;;;;;;8428385;28;19924;-74
2024/01/10 15:42:28;;;;;;;;;;;3.60;99.90;;;;;;8433382;28;20375;-73
2024/01/10 15:46:30;;;;;;;;;;;3.30;99.90;;;;;;8407190;28;20595;-73
2024/01/10 15:50:31;;;;;;;;;;;2.90;99.90;;;;;;8396818;28;19928;-74
2024/01/10 15:54:37;;;;;;;;;;;2.60;99.90;;;;;;8396592;28;20359;-74
2024/01/10 15:58:39;;;;;;;;;;;2.30;99.90;;;;;;8428829;27;19932;-73
2024/01/10 16:02:41;;;;;;;;;;;2.10;99.90;;;;;;8410898;28;19974;-73
2024/01/10 16:06:44;;;;;;;;;;;1.90;99.90;;;;;;8402979;28;19932;-73
2024/01/10 16:10:46;;;;;;;;;;;1.80;99.90;;;;;;8411226;28;19928;-74
2024/01/10 16:14:48;;;;;;;;;;;1.60;99.90;;;;;;8410848;28;19925;-74
2024/01/10 16:18:50;;;;;;;;;;;1.50;99.90;;;;;;8401772;28;19940;-74
2024/01/10 16:22:52;;;;;;;;;;;1.40;99.90;;;;;;8402759;28;20000;-73
2024/01/10 16:26:53;;;;;;;;;;;1.30;99.90;;;;;;8393654;28;19925;-74
2024/01/10 16:30:55;;;;;;;;;;;1.20;99.90;;;;;;8436498;27;20368;-73
2024/01/10 16:34:57;;;;;;;;;;;1.20;99.90;;;;;;8406374;28;19960;-74
2024/01/10 16:38:59;;;;;;;;;;;1.10;99.90;;;;;;8397526;28;19932;-73
2024/01/10 16:43:01;;;;;;;;;;;1.10;99.90;;;;;;8429834;27;19937;-73
2024/01/10 16:47:03;;;;;;;;;;;1.00;99.90;;;;;;8394766;28;19955;-74
2024/01/10 16:51:05;;;;;;;;;;;1.00;99.90;;;;;;8400847;28;19924;-73
2024/01/10 16:55:07;;;;;;;;;;;0.90;99.90;;;;;;8401523;28;19935;-73
2024/01/10 16:59:09;;;;;;;;;;;0.90;99.90;;;;;;8400565;28;20019;-74
2024/01/10 17:03:11;;;;;;;;;;;0.80;99.90;;;;;;8434939;27;19925;-73
2024/01/10 17:07:12;;;;;;;;;;;0.70;99.90;;;;;;8396848;28;19931;-73
2024/01/10 17:11:14;;;;;;;;;;;0.70;99.90;;;;;;8396209;28;20012;-74
2024/01/10 17:15:18;;;;;;;;;;;0.60;99.90;;;;;;8390354;28;19931;-74
2024/01/10 17:19:19;;;;;;;;;;;0.60;99.90;;;;;;8398272;28;19985;-74
2024/01/10 17:23:21;;;;;;;;;;;0.60;99.90;;;;;;8425406;27;20030;-74
2024/01/10 17:27:23;;;;;;;;;;;0.60;99.90;;;;;;8403685;28;19935;-74
2024/01/10 17:31:25;;;;;;;;;;;0.50;99.90;;;;;;8396411;28;20291;-74
2024/01/10 17:35:27;;;;;;;;;;;0.50;99.90;;;;;;8401131;28;19928;-74
2024/01/10 17:39:29;;;;;;;;;;;0.50;99.90;;;;;;8408033;28;19928;-73
2024/01/10 17:43:30;;;;;;;;;;;0.40;99.90;;;;;;8397623;28;19936;-74
2024/01/10 17:47:32;;;;;;;;;;;0.40;99.90;;;;;;8409614;28;19924;-74
2024/01/10 17:51:34;;;;;;;;;;;0.30;99.90;;;;;;8405974;28;19985;-74
2024/01/10 17:55:36;;;;;;;;;;;0.30;99.90;;;;;;8407401;28;19951;-74
2024/01/10 17:59:38;;;;;;;;;;;0.30;99.90;;;;;;8402641;28;19935;-74
2024/01/10 18:03:39;;;;;;;;;;;0.30;99.90;;;;;;8396444;28;19977;-74
2024/01/10 18:07:41;;;;;;;;;;;0.30;99.90;;;;;;8399300;28;19998;-74
2024/01/10 18:11:43;;;;;;;;;;;0.20;99.90;;;;;;8395305;28;19933;-74
2024/01/10 18:15:44;;;;;;;;;;;0.20;99.90;;;;;;8401401;28;19928;-73
2024/01/10 18:19:46;;;;;;;;;;;0.10;99.90;;;;;;8437838;27;20112;-74
2024/01/10 18:23:48;;;;;;;;;;;0.10;99.90;;;;;;8423419;27;20011;-74
2024/01/10 18:27:50;;;;;;;;;;;0.00;99.90;;;;;;8402186;28;19924;-74
2024/01/10 18:31:52;;;;;;;;;;;0.00;99.90;;;;;;8394519;28;19931;-74
2024/01/10 18:35:53;;;;;;;;;;;0.00;99.90;;;;;;8393455;28;19925;-74
2024/01/10 18:39:55;;;;;;;;;;;-0.10;99.90;;;;;;8393591;28;19924;-74
2024/01/10 18:43:57;;;;;;;;;;;-0.10;99.90;;;;;;8393972;28;19928;-74
2024/01/10 18:47:58;;;;;;;;;;;-0.20;99.90;;;;;;8393168;28;19932;-74
2024/01/10 18:52:01;;;;;;;;;;;-0.20;99.90;;;;;;8401402;28;19932;-74
2024/01/10 18:56:04;;;;;;;;;;;-0.20;99.90;;;;;;8388448;28;19933;-74
2024/01/10 19:00:06;;;;;;;;;;;-0.30;99.90;;;;;;8428660;27;20034;-74
2024/01/10 19:04:08;;;;;;;;;;;-0.40;99.90;;;;;;8441627;27;20540;-74
2024/01/10 19:08:10;;;;;;;;;;;-0.50;99.90;;;;;;8405655;28;19938;-74
2024/01/10 19:12:12;;;;;;;;;;;-0.50;99.90;;;;;;8394564;28;19938;-74
2024/01/10 19:16:14;;;;;;;;;;;-0.60;99.90;;;;;;8407246;28;19924;-75
2024/01/10 19:20:16;;;;;;;;;;;-0.70;99.90;;;;;;8405163;28;19924;-75
2024/01/10 19:24:17;;;;;;;;;;;-0.70;99.90;;;;;;8401488;28;19932;-74
2024/01/10 19:28:19;;;;;;;;;;;-0.80;99.90;;;;;;8404839;28;19978;-75
2024/01/10 19:32:21;;;;;;;;;;;-0.80;99.90;;;;;;8406777;28;19932;-74
2024/01/10 19:36:23;;;;;;;;;;;-0.90;99.90;;;;;;8401504;28;20053;-74
2024/01/10 19:40:28;;;;;;;;;;;-0.90;99.90;;;;;;8391831;28;19924;-75
2024/01/10 19:44:29;;;;;;;;;;;-0.90;99.90;;;;;;8394045;28;19928;-74
2024/01/10 19:48:31;;;;;;;;;;;-0.90;99.90;;;;;;8394635;28;20011;-74
2024/01/10 19:52:36;;;;;;;;;;;-0.90;99.90;;;;;;8398261;28;19930;-74
2024/01/10 19:56:38;;;;;;;;;;;-1.00;99.90;;;;;;8395995;28;19928;-74
2024/01/10 20:00:39;;;;;;;;;;;-1.00;99.90;;;;;;8392068;28;19924;-75
2024/01/10 20:04:42;;;;;;;;;;;-1.00;99.90;;;;;;8398215;28;19931;-75
2024/01/10 20:08:44;;;;;;;;;;;-1.00;99.90;;;;;;8404896;28;19928;-74
2024/01/10 20:12:45;;;;;;;;;;;-1.00;99.90;;;;;;8399121;28;19935;-74
2024/01/10 20:16:48;;;;;;;;;;;-1.00;99.90;;;;;;8395324;28;19924;-74
2024/01/10 20:20:50;;;;;;;;;;;-1.00;99.90;;;;;;8391256;28;20379;-74
2024/01/10 20:24:51;;;;;;;;;;;-1.10;99.90;;;;;;8394541;28;19925;-75
2024/01/10 20:28:53;;;;;;;;;;;-1.10;99.90;;;;;;8401330;28;19931;-74
2024/01/10 20:32:57;;;;;;;;;;;-1.00;99.90;;;;;;8395839;28;19928;-74
2024/01/10 20:36:59;;;;;;;;;;;-1.10;99.90;;;;;;8398268;28;19958;-74
2024/01/10 20:41:01;;;;;;;;;;;-1.10;99.90;;;;;;8429274;27;19925;-74
2024/01/10 20:45:03;;;;;;;;;;;-1.10;99.90;;;;;;8429095;27;19932;-74
2024/01/10 20:49:05;;;;;;;;;;;-1.20;99.90;;;;;;8398439;28;19928;-74
2024/01/10 20:53:07;;;;;;;;;;;-1.20;99.90;;;;;;8395222;28;19928;-75
2024/01/10 20:57:09;;;;;;;;;;;-1.30;99.90;;;;;;8427084;27;19976;-74
2024/01/10 21:01:10;;;;;;;;;;;-1.30;99.90;;;;;;8396311;28;19932;-74
2024/01/10 21:05:12;;;;;;;;;;;-1.30;99.90;;;;;;8394862;28;19978;-74
2024/01/10 21:09:14;;;;;;;;;;;-1.40;99.90;;;;;;8398609;28;20291;-75
2024/01/10 21:13:15;;;;;;;;;;;-1.40;99.90;;;;;;8406784;28;19924;-74
2024/01/10 21:17:17;;;;;;;;;;;-1.40;99.90;;;;;;8408057;28;19990;-75
2024/01/10 21:21:19;;;;;;;;;;;-1.50;99.90;;;;;;8399411;28;19932;-74
2024/01/10 21:25:20;;;;;;;;;;;-1.50;99.90;;;;;;8404876;28;20349;-75
2024/01/10 21:29:22;;;;;;;;;;;-1.50;99.90;;;;;;8426775;27;19967;-74
2024/01/10 21:33:24;;;;;;;;;;;-1.50;99.90;;;;;;8398950;28;19972;-75
2024/01/10 21:37:26;;;;;;;;;;;-1.60;99.90;;;;;;8408437;28;20425;-74
2024/01/10 21:41:28;;;;;;;;;;;-1.60;99.90;;;;;;8393548;28;19940;-74
2024/01/10 21:45:29;;;;;;;;;;;-1.70;99.90;;;;;;8391993;28;19929;-74
2024/01/10 21:49:31;;;;;;;;;;;-1.70;99.90;;;;;;8394594;28;19928;-75
2024/01/10 21:53:33;;;;;;;;;;;-1.70;99.90;;;;;;8398849;28;19967;-74
2024/01/10 21:57:35;;;;;;;;;;;-1.70;99.90;;;;;;8386478;28;19986;-74
2024/01/10 22:01:36;;;;;;;;;;;-1.70;99.90;;;;;;8392921;28;19981;-74
2024/01/10 22:05:38;;;;;;;;;;;-1.80;99.90;;;;;;8425322;28;19935;-74
2024/01/10 22:09:40;;;;;;;;;;;-1.70;99.90;;;;;;8418916;28;19932;-74
2024/01/10 22:13:42;;;;;;;;;;;-1.70;99.90;;;;;;8419814;28;19969;-74
2024/01/10 22:17:44;;;;;;;;;;;-1.70;99.90;;;;;;8464708;27;19950;-74
2024/01/10 22:21:46;;;;;;;;;;;-1.80;99.90;;;;;;8423093;28;20404;-74
2024/01/10 22:25:48;;;;;;;;;;;-1.80;99.90;;;;;;8409367;28;19939;-75
2024/01/10 22:29:50;;;;;;;;;;;-1.80;99.90;;;;;;8435743;28;19935;-74
2024/01/10 22:33:51;;;;;;;;;;;-1.80;99.90;;;;;;8407491;28;20345;-74
2024/01/10 22:37:54;;;;;;;;;;;-1.80;99.90;;;;;;8435203;28;20303;-74
2024/01/10 22:41:56;;;;;;;;;;;-1.90;99.90;;;;;;8420081;28;19974;-74
2024/01/10 22:45:59;;;;;;;;;;;-1.90;99.90;;;;;;8423634;28;19990;-74
2024/01/10 22:50:01;;;;;;;;;;;-1.90;99.90;;;;;;8423288;28;19924;-74
2024/01/10 22:54:03;;;;;;;;;;;-1.90;99.90;;;;;;8420998;28;19950;-74
2024/01/10 22:58:05;;;;;;;;;;;-1.90;99.90;;;;;;8415802;28;20449;-74
2024/01/10 23:02:06;;;;;;;;;;;-2.00;99.90;;;;;;8415318;28;19970;-75
2024/01/10 23:06:08;;;;;;;;;;;-2.00;99.90;;;;;;8425635;28;19928;-74
2024/01/10 23:10:10;;;;;;;;;;;-2.00;99.90;;;;;;8433753;28;19967;-74
2024/01/10 23:14:13;;;;;;;;;;;-2.00;99.90;;;;;;8439144;27;19924;-74
2024/01/10 23:18:17;;;;;;;;;;;-2.10;99.90;;;;;;8402903;28;20631;-74
2024/01/10 23:22:19;;;;;;;;;;;-2.10;99.90;;;;;;8437145;27;19956;-74
2024/01/10 23:26:20;;;;;;;;;;;-2.10;99.90;;;;;;8418211;28;19935;-74
2024/01/10 23:30:22;;;;;;;;;;;-2.20;99.90;;;;;;8422488;28;19932;-74
2024/01/10 23:34:23;;;;;;;;;;;-2.10;99.90;;;;;;8441869;27;19960;-74
2024/01/10 23:38:25;;;;;;;;;;;-2.20;99.90;;;;;;8412391;28;19925;-74
2024/01/10 23:42:27;;;;;;;;;;;-2.20;99.90;;;;;;8407264;28;19974;-74
2024/01/10 23:46:29;;;;;;;;;;;-2.20;99.90;;;;;;8423443;28;19937;-74
2024/01/10 23:50:30;;;;;;;;;;;-2.20;99.90;;;;;;8423928;28;20057;-75
2024/01/10 23:54:32;;;;;;;;;;;-2.20;99.90;;;;;;8423555;28;19984;-75
2024/01/10 23:58:34;;;;;;;;;;;-2.10;99.90;;;;;;8423092;28;19976;-74
